createdAt,value
2022-08-25T00:01:16.789Z,26.50
2022-08-25T00:03:24.070Z,26.60
2022-08-25T00:05:33.407Z,26.60
2022-08-25T00:07:41.155Z,26.60
2022-08-25T00:09:48.482Z,26.60
2022-08-25T00:11:55.824Z,26.60
2022-08-25T00:14:05.305Z,26.60
2022-08-25T00:16:14.456Z,26.60
2022-08-25T00:18:21.518Z,26.60
2022-08-25T00:20:29.311Z,26.50
2022-08-25T00:22:36.647Z,26.50
2022-08-25T00:24:43.781Z,26.50
2022-08-25T00:26:53.411Z,26.40
2022-08-25T00:29:01.796Z,26.40
2022-08-25T00:31:10.094Z,26.30
2022-08-25T00:33:18.953Z,26.30
2022-08-25T00:35:26.398Z,26.30
2022-08-25T00:37:33.522Z,26.20
2022-08-25T00:39:41.571Z,26.20
2022-08-25T00:41:49.786Z,26.20
2022-08-25T00:43:59.260Z,26.30
2022-08-25T00:46:06.425Z,26.30
2022-08-25T00:48:13.526Z,26.30
2022-08-25T00:50:23.780Z,26.30
2022-08-25T00:52:37.357Z,26.40
2022-08-25T00:54:49.146Z,26.40
2022-08-25T00:56:55.468Z,26.40
2022-08-25T00:59:05.360Z,26.50
2022-08-25T01:01:12.621Z,26.50
2022-08-25T01:03:20.382Z,26.60
2022-08-25T01:05:30.288Z,26.50
2022-08-25T01:07:37.924Z,26.50
2022-08-25T01:09:46.798Z,26.50
2022-08-25T01:11:54.079Z,26.50
2022-08-25T01:14:04.490Z,26.50
2022-08-25T01:16:12.043Z,26.50
2022-08-25T01:18:19.873Z,26.50
2022-08-25T01:20:31.044Z,26.60
2022-08-25T01:22:40.124Z,26.50
2022-08-25T01:24:53.910Z,26.60
2022-08-25T01:27:01.098Z,26.60
2022-08-25T01:29:28.187Z,26.60
2022-08-25T01:31:35.799Z,26.60
2022-08-25T01:33:43.783Z,26.60
2022-08-25T01:35:51.323Z,26.60
2022-08-25T01:38:00.439Z,26.60
2022-08-25T01:40:08.733Z,26.70
2022-08-25T01:42:31.347Z,26.70
2022-08-25T01:44:40.632Z,26.70
2022-08-25T01:46:48.019Z,26.80
2022-08-25T01:48:55.507Z,26.90
2022-08-25T01:51:02.995Z,26.90
2022-08-25T01:53:15.910Z,27.00
2022-08-25T01:55:23.820Z,27.00
2022-08-25T01:57:33.651Z,27.10
2022-08-25T01:59:41.096Z,27.10
2022-08-25T02:01:48.326Z,27.10
2022-08-25T02:03:58.168Z,27.20
2022-08-25T02:06:05.196Z,27.30
2022-08-25T02:08:14.636Z,27.40
2022-08-25T02:10:21.704Z,27.50
2022-08-25T02:12:31.562Z,27.60
2022-08-25T02:14:38.694Z,27.70
2022-08-25T02:16:48.978Z,27.80
2022-08-25T02:18:56.535Z,27.80
2022-08-25T02:21:03.870Z,27.80
2022-08-25T02:23:12.934Z,27.80
2022-08-25T02:25:20.166Z,27.70
2022-08-25T02:27:27.307Z,27.70
2022-08-25T02:29:34.949Z,27.70
2022-08-25T02:31:42.738Z,27.60
2022-08-25T02:33:49.924Z,27.50
2022-08-25T02:36:00.541Z,27.30
2022-08-25T02:38:08.434Z,27.20
2022-08-25T02:40:18.545Z,27.00
2022-08-25T02:42:26.075Z,26.90
2022-08-25T02:44:33.458Z,26.80
2022-08-25T02:46:41.711Z,26.80
2022-08-25T02:48:49.623Z,26.70
2022-08-25T02:50:57.009Z,26.80
2022-08-25T02:53:04.397Z,26.70
2022-08-25T02:55:15.464Z,26.70
2022-08-25T02:57:24.437Z,26.70
2022-08-25T02:59:31.411Z,26.70
2022-08-25T03:01:38.784Z,26.70
2022-08-25T03:03:47.712Z,26.70
2022-08-25T03:05:55.257Z,26.80
2022-08-25T03:08:02.647Z,26.70
2022-08-25T03:10:12.192Z,26.70
2022-08-25T03:12:19.729Z,26.80
2022-08-25T03:14:28.657Z,26.90
2022-08-25T03:16:37.139Z,27.00
2022-08-25T03:18:45.190Z,27.10
2022-08-25T03:20:52.598Z,27.20
2022-08-25T03:23:00.338Z,27.30
2022-08-25T03:25:24.158Z,27.30
2022-08-25T03:27:33.799Z,27.40
2022-08-25T03:29:42.777Z,27.50
2022-08-25T03:31:50.158Z,27.60
2022-08-25T03:33:57.703Z,27.70
2022-08-25T03:36:05.147Z,27.80
2022-08-25T03:38:12.684Z,27.80
2022-08-25T03:40:20.583Z,27.90
2022-08-25T03:42:27.859Z,27.90
2022-08-25T03:44:34.842Z,28.00
2022-08-25T03:46:46.736Z,28.00
2022-08-25T03:48:53.098Z,28.10
2022-08-25T03:51:00.479Z,28.10
2022-08-25T03:53:08.735Z,28.10
2022-08-25T03:55:20.480Z,28.10
2022-08-25T03:57:27.499Z,28.20
2022-08-25T03:59:36.741Z,28.20
2022-08-25T04:01:50.236Z,28.20
2022-08-25T04:04:00.217Z,28.30
2022-08-25T04:06:09.136Z,28.30
2022-08-25T04:08:16.362Z,28.30
2022-08-25T04:10:26.357Z,28.30
2022-08-25T04:12:33.652Z,28.40
2022-08-25T04:14:41.238Z,28.40
2022-08-25T04:16:50.524Z,28.50
2022-08-25T04:18:58.581Z,28.50
2022-08-25T04:21:10.312Z,28.60
2022-08-25T04:23:17.851Z,28.60
2022-08-25T04:25:24.837Z,28.70
2022-08-25T04:27:32.016Z,28.70
2022-08-25T04:29:39.095Z,28.70
2022-08-25T04:31:48.788Z,28.80
2022-08-25T04:33:58.270Z,28.90
2022-08-25T04:36:07.743Z,28.90
2022-08-25T04:38:19.238Z,29.00
2022-08-25T04:40:29.126Z,29.10
2022-08-25T04:42:36.467Z,29.20
2022-08-25T04:44:43.538Z,29.20
2022-08-25T04:46:51.136Z,29.30
2022-08-25T04:49:01.130Z,29.50
2022-08-25T04:51:09.650Z,29.60
2022-08-25T04:53:17.395Z,29.80
2022-08-25T04:55:25.078Z,29.90
2022-08-25T04:57:32.413Z,30.00
2022-08-25T04:59:39.553Z,30.00
2022-08-25T05:01:49.668Z,30.00
2022-08-25T05:04:02.345Z,30.00
2022-08-25T05:06:15.286Z,30.00
2022-08-25T05:08:23.023Z,30.10
2022-08-25T05:10:30.611Z,30.20
2022-08-25T05:12:37.742Z,30.20
2022-08-25T05:14:45.022Z,30.30
2022-08-25T05:16:52.482Z,30.30
2022-08-25T05:19:01.794Z,30.40
2022-08-25T05:21:11.289Z,30.50
2022-08-25T05:23:18.720Z,30.60
2022-08-25T05:25:26.163Z,30.60
2022-08-25T05:27:33.339Z,30.60
2022-08-25T05:29:40.423Z,30.60
2022-08-25T05:31:50.596Z,30.60
2022-08-25T05:34:00.617Z,30.50
2022-08-25T05:36:08.976Z,30.40
2022-08-25T05:38:16.063Z,30.30
2022-08-25T05:40:24.653Z,30.20
2022-08-25T05:42:32.165Z,30.20
2022-08-25T05:44:39.547Z,30.10
2022-08-25T05:46:46.527Z,30.00
2022-08-25T05:48:54.178Z,29.90
2022-08-25T05:51:05.142Z,29.90
2022-08-25T05:53:12.528Z,29.80
2022-08-25T05:55:20.066Z,29.80
2022-08-25T05:57:27.207Z,29.90
2022-08-25T05:59:34.936Z,29.90
2022-08-25T06:01:58.459Z,29.90
2022-08-25T06:04:06.336Z,29.80
2022-08-25T06:06:17.009Z,29.70
2022-08-25T06:08:24.814Z,29.70
2022-08-25T06:10:32.089Z,29.70
2022-08-25T06:12:39.219Z,29.80
2022-08-25T06:14:46.621Z,30.10
2022-08-25T06:16:54.307Z,30.30
2022-08-25T06:19:02.355Z,30.50
2022-08-25T06:21:16.343Z,30.60
2022-08-25T06:23:23.679Z,30.80
2022-08-25T06:25:33.892Z,30.90
2022-08-25T06:27:41.486Z,31.00
2022-08-25T06:29:48.821Z,31.00
2022-08-25T06:32:00.699Z,31.00
2022-08-25T06:34:07.735Z,31.00
2022-08-25T06:36:17.269Z,31.00
2022-08-25T06:38:24.303Z,30.90
2022-08-25T06:40:31.466Z,30.90
2022-08-25T06:42:39.073Z,31.00
2022-08-25T06:44:47.536Z,30.90
2022-08-25T06:46:55.291Z,30.80
2022-08-25T06:49:02.614Z,30.90
2022-08-25T06:51:14.028Z,30.90
2022-08-25T06:53:22.196Z,31.00
2022-08-25T06:55:29.274Z,31.00
2022-08-25T06:57:36.927Z,31.00
2022-08-25T06:59:44.101Z,31.10
2022-08-25T07:01:51.444Z,31.10
2022-08-25T07:04:01.902Z,31.10
2022-08-25T07:06:10.052Z,31.00
2022-08-25T07:08:17.020Z,30.90
2022-08-25T07:10:26.106Z,30.80
2022-08-25T07:12:33.379Z,30.70
2022-08-25T07:14:40.511Z,30.60
2022-08-25T07:17:00.903Z,30.60
2022-08-25T07:19:08.600Z,30.50
2022-08-25T07:21:18.803Z,30.40
2022-08-25T07:23:28.748Z,30.30
2022-08-25T07:25:38.649Z,30.30
2022-08-25T07:27:45.719Z,30.30
2022-08-25T07:29:55.152Z,30.30
2022-08-25T07:32:02.499Z,30.30
2022-08-25T07:34:26.882Z,30.30
2022-08-25T07:36:35.541Z,30.30
2022-08-25T07:38:42.885Z,30.30
2022-08-25T07:40:57.092Z,30.20
2022-08-25T07:43:06.509Z,30.20
2022-08-25T07:45:17.445Z,30.10
2022-08-25T07:47:27.934Z,30.00
2022-08-25T07:49:35.989Z,30.00
2022-08-25T07:52:04.402Z,30.00
2022-08-25T07:54:13.550Z,30.00
2022-08-25T07:56:22.879Z,30.00
2022-08-25T07:58:30.930Z,30.00
2022-08-25T08:00:38.783Z,29.90
2022-08-25T08:02:46.816Z,29.90
2022-08-25T08:04:57.191Z,29.90
2022-08-25T08:07:04.270Z,29.90
2022-08-25T08:09:11.746Z,29.90
2022-08-25T08:11:22.114Z,29.80
2022-08-25T08:13:31.343Z,29.80
2022-08-25T08:15:38.880Z,29.80
2022-08-25T08:17:46.013Z,29.80
2022-08-25T08:19:55.338Z,29.70
2022-08-25T08:22:02.786Z,29.70
2022-08-25T08:24:24.808Z,29.70
2022-08-25T08:26:57.702Z,29.60
2022-08-25T08:29:06.866Z,29.60
2022-08-25T08:31:14.812Z,29.50
2022-08-25T08:33:22.109Z,29.60
2022-08-25T08:35:29.545Z,29.50
2022-08-25T08:37:39.235Z,29.50
2022-08-25T08:39:47.259Z,29.50
2022-08-25T08:42:19.961Z,29.50
2022-08-25T08:44:38.209Z,29.40
2022-08-25T08:47:00.906Z,29.40
2022-08-25T08:49:26.859Z,29.40
2022-08-25T08:51:38.863Z,29.40
2022-08-25T08:53:53.470Z,29.30
2022-08-25T08:56:03.269Z,29.30
2022-08-25T08:58:15.873Z,29.30
2022-08-25T09:00:23.158Z,29.30
2022-08-25T09:02:39.457Z,29.30
2022-08-25T09:05:02.504Z,29.30
2022-08-25T09:07:20.806Z,29.30
2022-08-25T09:09:35.679Z,29.30
2022-08-25T09:11:54.572Z,29.20
2022-08-25T09:14:15.879Z,29.20
2022-08-25T09:16:46.141Z,29.10
2022-08-25T09:19:00.301Z,29.00
2022-08-25T09:21:16.689Z,29.00
2022-08-25T09:23:42.253Z,29.00
2022-08-25T09:25:57.117Z,29.00
2022-08-25T09:28:10.387Z,29.00
2022-08-25T09:30:22.237Z,29.00
2022-08-25T09:32:34.121Z,28.90
2022-08-25T09:34:43.159Z,28.80
2022-08-25T09:36:53.966Z,28.70
2022-08-25T09:39:01.511Z,28.70
2022-08-25T09:41:12.534Z,28.60
2022-08-25T09:43:26.470Z,28.60
2022-08-25T09:45:44.658Z,28.60
2022-08-25T09:47:52.097Z,28.60
2022-08-25T09:50:05.256Z,28.60
2022-08-25T09:52:38.776Z,28.60
2022-08-25T09:54:49.076Z,28.60
2022-08-25T09:56:58.045Z,28.50
2022-08-25T09:59:34.824Z,28.60
2022-08-25T10:01:52.933Z,28.60
2022-08-25T10:04:17.697Z,28.50
2022-08-25T10:06:28.417Z,28.50
2022-08-25T10:08:40.566Z,28.40
2022-08-25T10:10:56.090Z,28.40
2022-08-25T10:13:06.402Z,28.40
2022-08-25T10:15:29.807Z,28.40
2022-08-25T10:17:39.699Z,28.40
2022-08-25T10:19:47.448Z,28.40
2022-08-25T10:22:12.154Z,28.40
2022-08-25T10:24:19.574Z,28.50
2022-08-25T10:26:37.407Z,28.50
2022-08-25T10:28:51.921Z,28.50
2022-08-25T10:31:09.655Z,28.50
2022-08-25T10:33:25.169Z,28.50
2022-08-25T10:35:38.095Z,28.50
2022-08-25T10:38:00.108Z,28.50
2022-08-25T10:40:17.424Z,28.50
2022-08-25T10:42:37.278Z,28.50
2022-08-25T10:45:14.819Z,28.40
2022-08-25T10:48:06.225Z,28.40
2022-08-25T10:50:21.647Z,28.40
2022-08-25T10:52:35.179Z,28.30
2022-08-25T10:54:51.428Z,28.30
2022-08-25T10:57:12.733Z,28.30
2022-08-25T10:59:37.937Z,28.30
2022-08-25T11:02:14.821Z,28.30
2022-08-25T11:04:27.990Z,28.20
2022-08-25T11:06:44.027Z,28.10
2022-08-25T11:08:57.307Z,28.10
2022-08-25T11:11:11.558Z,28.00
2022-08-25T11:13:26.276Z,28.00
2022-08-25T11:15:46.763Z,28.00
2022-08-25T11:18:14.486Z,28.00
2022-08-25T11:20:29.915Z,27.90
2022-08-25T11:22:45.771Z,27.90
2022-08-25T11:25:05.654Z,27.80
2022-08-25T11:27:21.725Z,27.80
2022-08-25T11:29:34.870Z,27.80
2022-08-25T11:31:43.789Z,27.70
2022-08-25T11:33:52.609Z,27.70
2022-08-25T11:36:04.401Z,27.70
2022-08-25T11:38:32.522Z,27.70
2022-08-25T11:41:11.185Z,27.70
2022-08-25T11:43:35.749Z,27.70
2022-08-25T11:46:09.361Z,27.70
2022-08-25T11:48:27.260Z,27.60
2022-08-25T11:50:36.188Z,27.60
2022-08-25T11:52:51.080Z,27.60
2022-08-25T11:55:09.727Z,27.60
2022-08-25T11:57:25.071Z,27.50
2022-08-25T12:00:11.880Z,27.50
2022-08-25T12:02:37.495Z,27.50
2022-08-25T12:04:45.761Z,27.50
2022-08-25T12:07:21.938Z,27.40
2022-08-25T12:09:29.506Z,27.50
2022-08-25T12:11:51.439Z,27.40
2022-08-25T12:14:11.009Z,27.40
2022-08-25T12:16:43.898Z,27.30
2022-08-25T12:18:51.431Z,27.40
2022-08-25T12:21:32.360Z,27.30
2022-08-25T12:23:44.723Z,27.40
2022-08-25T12:25:56.700Z,27.30
2022-08-25T12:28:14.582Z,27.40
2022-08-25T12:30:26.197Z,27.40
2022-08-25T12:33:03.355Z,27.40
2022-08-25T12:35:32.289Z,27.30
2022-08-25T12:37:56.682Z,27.30
2022-08-25T12:40:06.795Z,27.30
2022-08-25T12:42:27.886Z,27.30
2022-08-25T12:44:45.157Z,27.30
2022-08-25T12:47:14.048Z,27.30
2022-08-25T12:49:36.946Z,27.30
2022-08-25T12:52:01.992Z,27.30
2022-08-25T12:54:22.736Z,27.20
2022-08-25T12:56:35.069Z,27.30
2022-08-25T12:59:00.280Z,27.20
2022-08-25T13:01:36.139Z,27.20
2022-08-25T13:04:11.040Z,27.20
2022-08-25T13:06:39.906Z,27.20
2022-08-25T13:09:18.698Z,27.20
2022-08-25T13:11:33.101Z,27.30
2022-08-25T13:13:49.608Z,27.20
2022-08-25T13:16:03.694Z,27.20
2022-08-25T13:18:23.833Z,27.20
2022-08-25T13:20:32.142Z,27.20
2022-08-25T13:22:43.766Z,27.10
2022-08-25T13:24:52.530Z,27.20
2022-08-25T13:27:02.740Z,27.10
2022-08-25T13:29:18.935Z,27.10
2022-08-25T13:31:29.424Z,27.10
2022-08-25T13:33:39.290Z,27.10
2022-08-25T13:36:12.337Z,27.10
2022-08-25T13:38:20.430Z,27.10
2022-08-25T13:40:30.362Z,27.00
2022-08-25T13:42:42.563Z,27.00
2022-08-25T13:44:52.504Z,27.00
2022-08-25T13:47:12.098Z,27.00
2022-08-25T13:49:31.054Z,27.00
2022-08-25T13:51:39.152Z,27.00
2022-08-25T13:53:53.654Z,27.00
2022-08-25T13:56:03.895Z,27.00
2022-08-25T13:58:24.895Z,27.00
2022-08-25T14:00:47.269Z,26.90
2022-08-25T14:02:56.755Z,26.90
2022-08-25T14:05:06.067Z,26.90
2022-08-25T14:07:20.433Z,26.90
2022-08-25T14:09:28.202Z,26.80
2022-08-25T14:11:37.406Z,26.80
2022-08-25T14:13:48.002Z,26.80
2022-08-25T14:15:56.266Z,26.80
2022-08-25T14:18:13.867Z,26.80
2022-08-25T14:20:29.929Z,26.80
2022-08-25T14:22:37.628Z,26.80
2022-08-25T14:24:49.168Z,26.70
2022-08-25T14:26:57.465Z,26.70
2022-08-25T14:29:04.600Z,26.80
2022-08-25T14:31:20.994Z,26.70
2022-08-25T14:33:34.479Z,26.80
2022-08-25T14:35:45.143Z,26.70
2022-08-25T14:37:52.570Z,26.70
2022-08-25T14:40:00.076Z,26.70
2022-08-25T14:42:07.502Z,26.70
2022-08-25T14:44:16.121Z,26.80
2022-08-25T14:46:25.495Z,26.70
2022-08-25T14:48:35.850Z,26.70
2022-08-25T14:50:44.838Z,26.70
2022-08-25T14:52:52.395Z,26.70
2022-08-25T14:55:00.079Z,26.70
2022-08-25T14:57:08.274Z,26.70
2022-08-25T14:59:16.325Z,26.70
2022-08-25T15:01:28.463Z,26.60
2022-08-25T15:03:39.848Z,26.60
2022-08-25T15:05:49.287Z,26.50
2022-08-25T15:08:14.085Z,26.60
2022-08-25T15:10:22.494Z,26.60
2022-08-25T15:12:46.799Z,26.50
2022-08-25T15:14:54.818Z,26.50
2022-08-25T15:17:03.749Z,26.50
2022-08-25T15:19:11.691Z,26.50
2022-08-25T15:21:21.079Z,26.50
2022-08-25T15:23:28.377Z,26.50
2022-08-25T15:25:36.576Z,26.50
2022-08-25T15:27:44.160Z,26.50
2022-08-25T15:29:51.911Z,26.50
2022-08-25T15:31:59.900Z,26.50
2022-08-25T15:34:07.092Z,26.50
2022-08-25T15:36:23.177Z,26.60
2022-08-25T15:38:31.945Z,26.50
2022-08-25T15:40:40.676Z,26.50
2022-08-25T15:42:47.791Z,26.60
2022-08-25T15:44:55.031Z,26.60
2022-08-25T15:47:03.941Z,26.60
2022-08-25T15:49:11.998Z,26.60
2022-08-25T15:51:22.154Z,26.70
2022-08-25T15:53:29.750Z,26.70
2022-08-25T15:55:37.123Z,26.70
2022-08-25T15:57:44.925Z,26.80
2022-08-25T15:59:53.644Z,26.70
2022-08-25T16:02:00.925Z,26.80
2022-08-25T16:04:08.264Z,26.70
2022-08-25T16:06:15.599Z,26.80
2022-08-25T16:08:26.572Z,26.80
2022-08-25T16:10:37.133Z,26.80
2022-08-25T16:12:46.158Z,26.80
2022-08-25T16:14:53.997Z,26.80
2022-08-25T16:17:01.901Z,26.80
2022-08-25T16:19:09.999Z,26.80
2022-08-25T16:21:20.666Z,26.80
2022-08-25T16:23:29.431Z,26.80
2022-08-25T16:25:36.921Z,26.80
2022-08-25T16:27:43.894Z,26.80
2022-08-25T16:29:53.136Z,26.80
2022-08-25T16:32:02.317Z,26.90
2022-08-25T16:34:10.664Z,26.80
2022-08-25T16:36:19.799Z,26.80
2022-08-25T16:38:30.560Z,26.80
2022-08-25T16:40:37.906Z,26.90
2022-08-25T16:42:46.311Z,26.90
2022-08-25T16:44:53.952Z,26.90
2022-08-25T16:47:01.637Z,26.90
2022-08-25T16:49:10.459Z,26.90
2022-08-25T16:51:22.633Z,26.90
2022-08-25T16:53:51.036Z,26.90
2022-08-25T16:56:06.634Z,26.80
2022-08-25T16:58:15.741Z,26.80
2022-08-25T17:00:25.918Z,26.80
2022-08-25T17:02:33.033Z,26.80
2022-08-25T17:04:40.415Z,26.80
2022-08-25T17:06:51.856Z,26.80
2022-08-25T17:09:01.333Z,26.80
2022-08-25T17:11:11.017Z,26.80
2022-08-25T17:13:18.508Z,26.80
2022-08-25T17:15:25.689Z,26.80
2022-08-25T17:17:37.539Z,26.80
2022-08-25T17:19:46.095Z,26.80
2022-08-25T17:21:55.626Z,26.80
2022-08-25T17:24:04.896Z,26.80
2022-08-25T17:26:14.784Z,26.80
2022-08-25T17:28:22.151Z,26.80
2022-08-25T17:30:29.530Z,26.80
2022-08-25T17:32:36.611Z,26.90
2022-08-25T17:34:44.357Z,26.80
2022-08-25T17:36:51.389Z,26.90
2022-08-25T17:38:59.081Z,26.90
2022-08-25T17:41:10.403Z,26.90
2022-08-25T17:43:18.045Z,26.90
2022-08-25T17:45:25.691Z,26.90
2022-08-25T17:47:33.185Z,26.90
2022-08-25T17:49:40.259Z,26.90
2022-08-25T17:51:47.650Z,26.90
2022-08-25T17:53:55.393Z,26.90
2022-08-25T17:56:04.828Z,26.90
2022-08-25T17:58:14.825Z,26.90
2022-08-25T18:00:24.303Z,26.90
2022-08-25T18:02:31.493Z,26.90
2022-08-25T18:04:39.088Z,26.90
2022-08-25T18:06:47.033Z,26.90
2022-08-25T18:08:58.850Z,26.90
2022-08-25T18:11:08.507Z,26.90
2022-08-25T18:13:17.995Z,26.90
2022-08-25T18:15:25.330Z,26.90
2022-08-25T18:17:36.196Z,26.90
2022-08-25T18:19:47.740Z,26.90
2022-08-25T18:21:55.018Z,26.90
2022-08-25T18:24:03.683Z,26.90
2022-08-25T18:26:12.922Z,26.90
2022-08-25T18:28:22.343Z,26.90
2022-08-25T18:30:29.788Z,26.90
2022-08-25T18:32:37.024Z,26.90
2022-08-25T18:34:44.309Z,26.90
2022-08-25T18:36:51.581Z,26.90
2022-08-25T18:39:16.531Z,26.90
2022-08-25T18:41:23.812Z,26.90
2022-08-25T18:43:33.791Z,26.90
2022-08-25T18:45:44.893Z,26.90
2022-08-25T18:47:54.472Z,26.90
2022-08-25T18:50:04.555Z,26.90
2022-08-25T18:52:11.814Z,27.00
2022-08-25T18:54:23.417Z,26.90
2022-08-25T18:56:30.249Z,27.00
2022-08-25T18:58:39.084Z,26.90
2022-08-25T19:00:48.827Z,26.90
2022-08-25T19:02:58.161Z,26.90
2022-08-25T19:05:07.777Z,26.90
2022-08-25T19:07:17.852Z,27.00
2022-08-25T19:09:25.033Z,26.90
2022-08-25T19:11:32.159Z,26.90
2022-08-25T19:13:42.266Z,26.90
2022-08-25T19:15:50.116Z,26.90
2022-08-25T19:17:59.035Z,26.90
2022-08-25T19:20:11.166Z,26.90
2022-08-25T19:22:40.275Z,26.90
2022-08-25T19:24:44.850Z,26.80
2022-08-25T19:26:54.523Z,26.80
2022-08-25T19:29:04.224Z,26.80
2022-08-25T19:31:11.622Z,26.80
2022-08-25T19:33:31.296Z,26.80
2022-08-25T19:35:50.395Z,26.80
2022-08-25T19:38:00.133Z,26.80
2022-08-25T19:40:10.107Z,26.80
2022-08-25T19:42:34.969Z,26.70
2022-08-25T19:44:44.827Z,26.70
2022-08-25T19:46:52.528Z,26.70
2022-08-25T19:49:01.594Z,26.70
2022-08-25T19:51:12.262Z,26.80
2022-08-25T19:53:19.391Z,26.70
2022-08-25T19:55:27.601Z,26.70
2022-08-25T19:57:42.249Z,26.70
2022-08-25T19:59:52.655Z,26.70
2022-08-25T20:01:59.582Z,26.70
2022-08-25T20:04:07.485Z,26.70
2022-08-25T20:06:16.023Z,26.70
2022-08-25T20:08:29.814Z,26.70
2022-08-25T20:10:42.014Z,26.70
2022-08-25T20:12:49.732Z,26.70
2022-08-25T20:14:58.497Z,26.60
2022-08-25T20:17:23.032Z,26.60
2022-08-25T20:19:31.701Z,26.60
2022-08-25T20:21:40.220Z,26.60
2022-08-25T20:24:03.725Z,26.60
2022-08-25T20:26:12.393Z,26.70
2022-08-25T20:28:19.483Z,26.70
2022-08-25T20:30:31.069Z,26.60
2022-08-25T20:32:38.445Z,26.60
2022-08-25T20:34:45.785Z,26.70
2022-08-25T20:36:54.036Z,26.70
2022-08-25T20:39:01.378Z,26.70
2022-08-25T20:41:12.960Z,26.60
2022-08-25T20:43:20.779Z,26.70
2022-08-25T20:45:30.188Z,26.70
2022-08-25T20:47:37.799Z,26.70
2022-08-25T20:49:46.033Z,26.70
2022-08-25T20:51:53.783Z,26.70
2022-08-25T20:54:00.962Z,26.70
2022-08-25T20:56:12.094Z,26.60
2022-08-25T20:58:19.681Z,26.60
2022-08-25T21:00:28.605Z,26.60
2022-08-25T21:02:35.812Z,26.70
2022-08-25T21:04:49.974Z,26.70
2022-08-25T21:06:57.881Z,26.70
2022-08-25T21:09:14.193Z,26.70
2022-08-25T21:11:25.660Z,26.70
2022-08-25T21:13:32.792Z,26.70
2022-08-25T21:15:45.344Z,26.70
2022-08-25T21:17:54.979Z,26.70
2022-08-25T21:20:02.132Z,26.70
2022-08-25T21:22:09.701Z,26.70
2022-08-25T21:24:18.216Z,26.70
2022-08-25T21:26:27.145Z,26.70
2022-08-25T21:28:34.326Z,26.70
2022-08-25T21:30:47.490Z,26.70
2022-08-25T21:32:54.569Z,26.60
2022-08-25T21:35:01.710Z,26.70
2022-08-25T21:37:09.095Z,26.60
2022-08-25T21:39:16.896Z,26.70
2022-08-25T21:41:26.679Z,26.60
2022-08-25T21:43:33.920Z,26.60
2022-08-25T21:45:46.646Z,26.60
2022-08-25T21:47:56.216Z,26.60
2022-08-25T21:50:03.236Z,26.60
2022-08-25T21:52:10.470Z,26.50
2022-08-25T21:54:19.557Z,26.60
2022-08-25T21:56:31.138Z,26.50
2022-08-25T21:58:40.257Z,26.50
2022-08-25T22:00:47.797Z,26.50
2022-08-25T22:02:57.416Z,26.50
2022-08-25T22:05:04.668Z,26.50
2022-08-25T22:07:15.648Z,26.50
2022-08-25T22:09:22.880Z,26.50
2022-08-25T22:11:31.918Z,26.50
2022-08-25T22:13:43.388Z,26.40
2022-08-25T22:15:51.953Z,26.40
2022-08-25T22:18:01.538Z,26.40
2022-08-25T22:20:09.436Z,26.40
2022-08-25T22:22:21.055Z,26.40
2022-08-25T22:24:28.863Z,26.40
2022-08-25T22:26:37.227Z,26.40
2022-08-25T22:28:45.950Z,26.40
2022-08-25T22:30:54.080Z,26.30
2022-08-25T22:33:03.885Z,26.30
2022-08-25T22:35:12.052Z,26.30
2022-08-25T22:37:20.655Z,26.30
2022-08-25T22:39:28.706Z,26.30
2022-08-25T22:41:36.204Z,26.30
2022-08-25T22:43:51.426Z,26.30
2022-08-25T22:46:05.096Z,26.30
2022-08-25T22:48:14.085Z,26.30
2022-08-25T22:50:21.420Z,26.30
2022-08-25T22:52:33.598Z,26.30
2022-08-25T22:54:41.200Z,26.20
2022-08-25T22:56:48.699Z,26.30
2022-08-25T22:58:56.382Z,26.30
2022-08-25T23:01:04.390Z,26.20
2022-08-25T23:03:14.030Z,26.20
2022-08-25T23:05:21.156Z,26.20
2022-08-25T23:07:30.079Z,26.20
2022-08-25T23:09:37.717Z,26.20
2022-08-25T23:11:45.157Z,26.20
2022-08-25T23:13:52.803Z,26.30
2022-08-25T23:16:02.625Z,26.20
2022-08-25T23:18:10.452Z,26.20
2022-08-25T23:20:36.357Z,26.20
2022-08-25T23:22:53.587Z,26.20
2022-08-25T23:25:01.022Z,26.20
2022-08-25T23:27:12.297Z,26.20
2022-08-25T23:29:19.733Z,26.30
2022-08-25T23:31:26.818Z,26.30
2022-08-25T23:33:35.485Z,26.30
2022-08-25T23:35:45.172Z,26.30
2022-08-25T23:37:52.704Z,26.30
2022-08-25T23:40:00.479Z,26.30
2022-08-25T23:42:08.355Z,26.30
2022-08-25T23:44:17.073Z,26.30
2022-08-25T23:46:26.577Z,26.30
2022-08-25T23:48:34.297Z,26.40
2022-08-25T23:50:47.838Z,26.40
2022-08-25T23:53:01.351Z,26.30
2022-08-25T23:55:09.626Z,26.30
2022-08-25T23:57:17.316Z,26.30
2022-08-25T23:59:26.846Z,26.30
